Medical Lake, Washington
Current Conditions -  °F | °C
As of 11:58 PM on Saturday 25 Oct 2014 (Local Time) from KSKA Reporting Station
Overcast Overcast  
Wind Chill: 42°   Ceiling: 6000
Heat Index: 50°   Visibility: 10mi
Dew Point: 42°   Wind: 29mph
Humidity: 75%   Direction: 200°SSW
Pressure: 29.62"   Gusts: 36mph
Location:  47.57°N, 117.68°W
Report Text: KSKA 260658Z AUTO 20025G31KT 10SM SCT025 BKN060 OVC085 10/06 A2962 RMK AO2 PK WND 20044/07 SLP032 T00980056 21040
Loading
Personal Weather Stations






























Interactive Weather Map
Tropical Storm Tracking
New forecast layout! Learn more

10-Day Weather Forecast

Advertisements
Track Severe Weather on mobile